createdAt,value
2022-12-16T00:01:35.240Z,9.48
2022-12-16T00:04:02.055Z,10.02
2022-12-16T00:06:31.825Z,9.15
2022-12-16T00:08:59.727Z,9.38
2022-12-16T00:11:26.886Z,6.88
2022-12-16T00:13:53.699Z,6.65
2022-12-16T00:16:22.437Z,8.40
2022-12-16T00:18:49.480Z,9.10
2022-12-16T00:21:19.384Z,7.57
2022-12-16T00:23:46.547Z,7.90
2022-12-16T00:26:14.178Z,8.75
2022-12-16T00:28:41.353Z,7.82
2022-12-16T00:31:08.145Z,10.13
2022-12-16T00:33:35.444Z,6.25
2022-12-16T00:36:02.665Z,6.88
2022-12-16T00:38:29.536Z,9.32
2022-12-16T00:40:56.488Z,9.48
2022-12-16T00:43:23.551Z,9.02
2022-12-16T00:45:51.971Z,6.65
2022-12-16T00:48:19.248Z,7.30
2022-12-16T00:50:55.119Z,6.63
2022-12-16T00:53:23.892Z,7.15
2022-12-16T00:55:51.833Z,7.15
2022-12-16T00:58:18.817Z,5.18
2022-12-16T01:00:45.709Z,3.22
2022-12-16T01:03:21.007Z,5.80
2022-12-16T01:05:48.484Z,7.50
2022-12-16T01:08:15.325Z,7.82
2022-12-16T01:10:42.134Z,7.43
2022-12-16T01:13:08.851Z,4.50
2022-12-16T01:15:37.727Z,5.97
2022-12-16T01:18:04.963Z,6.68
2022-12-16T01:20:33.496Z,7.50
2022-12-16T01:23:00.493Z,9.35
2022-12-16T01:25:27.306Z,11.30
2022-12-16T01:27:54.038Z,7.47
2022-12-16T01:30:22.364Z,8.43
2022-12-16T01:32:49.675Z,13.45
2022-12-16T01:35:44.228Z,13.07
2022-12-16T01:38:04.253Z,11.32
2022-12-16T01:40:31.093Z,10.43
2022-12-16T01:42:57.852Z,15.70
2022-12-16T01:45:30.642Z,12.00
2022-12-16T01:48:01.912Z,8.55
2022-12-16T01:50:30.209Z,9.20
2022-12-16T01:52:59.101Z,5.18
2022-12-16T01:55:33.161Z,9.25
2022-12-16T01:58:27.748Z,9.48
2022-12-16T02:00:54.817Z,6.20
2022-12-16T02:03:22.614Z,6.30
2022-12-16T02:05:50.229Z,7.88
2022-12-16T02:08:19.340Z,8.15
2022-12-16T02:11:07.001Z,7.80
2022-12-16T02:13:53.149Z,8.48
2022-12-16T02:16:31.185Z,6.78
2022-12-16T02:19:16.246Z,7.18
2022-12-16T02:22:25.039Z,7.80
2022-12-16T02:25:03.616Z,9.60
2022-12-16T02:27:52.106Z,10.55
2022-12-16T02:30:43.456Z,9.23
2022-12-16T02:33:43.696Z,11.13
2022-12-16T02:36:32.509Z,10.80
2022-12-16T02:39:13.430Z,9.50
2022-12-16T02:42:21.460Z,11.60
2022-12-16T02:45:13.567Z,8.82
2022-12-16T02:47:40.434Z,9.27
2022-12-16T02:50:26.403Z,7.13
2022-12-16T02:52:55.863Z,5.80
2022-12-16T02:55:32.862Z,12.00
2022-12-16T02:58:08.701Z,12.23
2022-12-16T03:00:56.619Z,9.35
2022-12-16T03:03:45.138Z,10.60
2022-12-16T03:06:15.908Z,6.90
2022-12-16T03:08:48.204Z,6.78
2022-12-16T03:11:15.344Z,4.32
2022-12-16T03:13:47.997Z,4.88
2022-12-16T03:16:16.331Z,3.97
2022-12-16T03:21:32.089Z,4.65
2022-12-16T03:24:01.764Z,6.07
2022-12-16T03:26:38.426Z,5.28
2022-12-16T03:29:41.274Z,4.05
2022-12-16T03:32:28.722Z,4.18
2022-12-16T03:34:59.959Z,3.40
2022-12-16T03:37:31.762Z,4.55
2022-12-16T03:40:03.479Z,3.97
2022-12-16T03:42:30.786Z,2.47
2022-12-16T03:44:57.927Z,3.72
2022-12-16T03:47:29.040Z,3.78
2022-12-16T03:49:56.240Z,4.85
2022-12-16T03:52:23.028Z,2.47
2022-12-16T03:54:49.809Z,3.20
2022-12-16T03:57:16.569Z,1.92
2022-12-16T03:59:43.534Z,3.50
2022-12-16T04:02:10.642Z,4.53
2022-12-16T04:04:37.536Z,3.67
2022-12-16T04:07:24.578Z,2.70
2022-12-16T04:09:52.651Z,3.28
2022-12-16T04:12:39.390Z,2.72
2022-12-16T04:15:26.396Z,3.03
2022-12-16T04:18:11.907Z,2.42
2022-12-16T04:21:02.749Z,4.00
2022-12-16T04:23:50.557Z,3.70
2022-12-16T04:26:17.547Z,2.28
2022-12-16T04:28:44.504Z,1.90
2022-12-16T04:31:11.380Z,3.30
2022-12-16T04:33:58.392Z,3.33
2022-12-16T04:36:43.902Z,2.05
2022-12-16T04:39:29.558Z,4.03
2022-12-16T04:42:15.052Z,4.40
2022-12-16T04:45:00.396Z,4.13
2022-12-16T04:47:46.217Z,1.95
2022-12-16T04:50:31.617Z,3.47
2022-12-16T04:53:16.848Z,3.42
2022-12-16T04:56:04.646Z,1.98
2022-12-16T04:58:50.390Z,3.03
2022-12-16T05:01:36.029Z,2.33
2022-12-16T05:04:21.722Z,2.92
2022-12-16T05:07:07.244Z,2.78
2022-12-16T05:09:52.850Z,3.47
2022-12-16T05:12:38.434Z,3.80
2022-12-16T05:15:24.578Z,7.72
2022-12-16T05:18:10.069Z,5.93
2022-12-16T05:20:55.708Z,5.82
2022-12-16T05:23:40.953Z,4.25
2022-12-16T05:26:26.348Z,3.38
2022-12-16T05:29:11.579Z,3.55
2022-12-16T05:31:57.092Z,3.92
2022-12-16T05:34:42.590Z,3.25
2022-12-16T05:37:28.455Z,2.28
2022-12-16T05:40:14.036Z,1.77
2022-12-16T05:42:59.576Z,4.95
2022-12-16T05:45:45.083Z,5.65
2022-12-16T05:48:30.980Z,8.38
2022-12-16T05:51:16.186Z,5.40
2022-12-16T05:54:01.765Z,3.72
2022-12-16T05:56:47.329Z,6.53
2022-12-16T05:59:32.867Z,6.10
2022-12-16T06:02:18.744Z,5.25
2022-12-16T06:05:04.315Z,7.30
2022-12-16T06:07:49.811Z,6.32
2022-12-16T06:10:35.576Z,5.10
2022-12-16T06:13:39.064Z,5.70
2022-12-16T06:16:24.811Z,10.30
2022-12-16T06:19:10.352Z,7.32
2022-12-16T06:21:55.772Z,10.15
2022-12-16T06:24:41.469Z,5.32
2022-12-16T06:27:26.845Z,5.85
2022-12-16T06:30:12.223Z,6.97
2022-12-16T06:32:57.745Z,5.78
2022-12-16T06:35:42.948Z,5.55
2022-12-16T06:38:28.601Z,7.38
2022-12-16T06:41:18.340Z,6.65
2022-12-16T06:44:03.952Z,4.57
2022-12-16T06:46:59.972Z,6.72
2022-12-16T06:49:45.623Z,7.25
2022-12-16T06:52:31.046Z,10.77
2022-12-16T06:55:16.630Z,7.38
2022-12-16T06:58:06.611Z,6.55
2022-12-16T07:00:54.987Z,4.80
2022-12-16T07:03:41.732Z,4.78
2022-12-16T07:06:27.576Z,3.67
2022-12-16T07:09:13.232Z,3.60
2022-12-16T07:11:58.557Z,3.55
2022-12-16T07:14:43.954Z,6.90
2022-12-16T07:17:29.326Z,5.30
2022-12-16T07:20:14.652Z,4.88
2022-12-16T07:23:11.813Z,5.38
2022-12-16T07:26:01.761Z,10.48
2022-12-16T07:28:47.135Z,6.57
2022-12-16T07:31:32.813Z,6.60
2022-12-16T07:34:18.490Z,5.85
2022-12-16T07:37:03.707Z,6.68
2022-12-16T07:39:54.570Z,9.20
2022-12-16T07:42:40.744Z,5.65
2022-12-16T07:45:26.938Z,5.00
2022-12-16T07:48:12.385Z,4.93
2022-12-16T07:50:58.560Z,4.97
2022-12-16T07:53:44.320Z,4.82
2022-12-16T07:56:29.974Z,2.88
2022-12-16T07:59:15.558Z,3.65
2022-12-16T08:02:01.141Z,2.88
2022-12-16T08:04:46.631Z,2.03
2022-12-16T08:07:31.969Z,5.93
2022-12-16T08:10:17.870Z,5.13
2022-12-16T08:13:03.230Z,5.00
2022-12-16T08:15:48.816Z,3.28
2022-12-16T08:18:34.257Z,3.35
2022-12-16T08:21:19.849Z,3.00
2022-12-16T08:24:05.278Z,2.10
2022-12-16T08:26:50.877Z,4.38
2022-12-16T08:29:44.911Z,1.88
2022-12-16T08:38:33.389Z,3.63
2022-12-16T08:44:09.382Z,4.82
2022-12-16T08:46:54.768Z,5.07
2022-12-16T08:49:40.359Z,4.18
2022-12-16T08:52:25.747Z,4.38
2022-12-16T08:55:11.385Z,5.40
2022-12-16T08:57:56.732Z,2.83
2022-12-16T09:00:42.330Z,4.40
2022-12-16T09:03:27.668Z,4.07
2022-12-16T09:06:18.023Z,4.50
2022-12-16T09:09:03.411Z,3.35
2022-12-16T09:11:49.017Z,2.28
2022-12-16T09:14:34.430Z,2.97
2022-12-16T09:17:19.982Z,2.83
2022-12-16T09:20:05.395Z,2.25
2022-12-16T09:22:50.773Z,2.88
2022-12-16T09:25:36.451Z,3.00
2022-12-16T09:28:21.918Z,3.72
2022-12-16T09:31:07.544Z,2.15
2022-12-16T09:33:54.088Z,2.65
2022-12-16T09:36:28.014Z,3.58
2022-12-16T09:39:13.546Z,4.03
2022-12-16T09:42:01.116Z,2.75
2022-12-16T09:45:08.720Z,2.58
2022-12-16T09:48:03.993Z,3.00
2022-12-16T09:50:50.124Z,1.67
2022-12-16T09:53:40.885Z,1.70
2022-12-16T09:56:49.140Z,2.10
2022-12-16T09:59:39.441Z,2.08
2022-12-16T10:02:31.160Z,1.45
2022-12-16T10:05:17.541Z,2.15
2022-12-16T10:08:19.075Z,1.42
2022-12-16T10:11:32.717Z,1.50
2022-12-16T10:14:27.245Z,2.55
2022-12-16T10:17:15.244Z,1.27
2022-12-16T10:20:24.468Z,2.03
2022-12-16T10:23:30.040Z,2.20
2022-12-16T10:26:33.437Z,5.82
2022-12-16T10:29:37.886Z,3.58
2022-12-16T10:33:12.168Z,4.13
2022-12-16T10:36:02.735Z,4.30
2022-12-16T10:38:53.963Z,3.65
2022-12-16T10:41:42.886Z,2.00
2022-12-16T10:44:45.516Z,3.30
2022-12-16T10:47:30.845Z,3.35
2022-12-16T10:50:17.520Z,2.97
2022-12-16T10:53:15.289Z,2.20
2022-12-16T10:56:42.745Z,3.58
2022-12-16T10:59:29.122Z,10.68
2022-12-16T11:02:20.019Z,8.55
2022-12-16T11:05:07.266Z,7.07
2022-12-16T11:08:09.335Z,5.43
2022-12-16T11:10:59.278Z,6.25
2022-12-16T11:13:51.963Z,3.60
2022-12-16T11:16:47.791Z,3.53
2022-12-16T11:19:45.396Z,3.90
2022-12-16T11:22:37.032Z,4.13
2022-12-16T11:25:32.694Z,5.88
2022-12-16T11:28:35.843Z,4.38
2022-12-16T11:31:25.730Z,6.78
2022-12-16T11:34:13.117Z,5.68
2022-12-16T11:37:00.331Z,7.50
2022-12-16T11:39:51.505Z,6.40
2022-12-16T11:42:44.256Z,8.35
2022-12-16T11:45:35.944Z,5.35
2022-12-16T11:48:31.567Z,4.80
2022-12-16T11:51:18.055Z,5.00
2022-12-16T11:54:06.732Z,4.47
2022-12-16T11:56:59.492Z,3.97
2022-12-16T12:00:01.030Z,2.58
2022-12-16T12:03:11.441Z,3.30
2022-12-16T12:06:16.983Z,3.53
2022-12-16T12:09:17.968Z,2.97
2022-12-16T12:12:32.727Z,3.50
2022-12-16T12:15:42.429Z,3.20
2022-12-16T12:19:12.755Z,5.35
2022-12-16T12:22:35.746Z,5.00
2022-12-16T12:25:48.778Z,5.28
2022-12-16T12:28:41.820Z,5.55
2022-12-16T12:32:06.025Z,5.82
2022-12-16T12:35:03.548Z,3.47
2022-12-16T12:38:05.358Z,3.13
2022-12-16T12:41:26.171Z,6.63
2022-12-16T12:44:24.782Z,6.53
2022-12-16T12:47:17.057Z,6.53
2022-12-16T12:50:22.256Z,6.40
2022-12-16T12:53:34.341Z,6.72
2022-12-16T12:57:05.759Z,8.07
2022-12-16T13:00:11.237Z,4.65
2022-12-16T13:03:10.472Z,5.80
2022-12-16T13:05:57.985Z,3.40
2022-12-16T13:09:09.757Z,3.05
2022-12-16T13:11:56.684Z,3.90
2022-12-16T13:14:51.385Z,3.33
2022-12-16T13:17:41.765Z,3.45
2022-12-16T13:20:52.651Z,2.75
2022-12-16T13:23:54.451Z,3.72
2022-12-16T13:26:45.213Z,3.28
2022-12-16T13:29:33.918Z,3.08
2022-12-16T13:32:41.191Z,3.50
2022-12-16T13:35:29.566Z,5.28
2022-12-16T13:38:20.528Z,5.63
2022-12-16T13:41:22.473Z,6.03
2022-12-16T13:44:13.849Z,3.70
2022-12-16T13:47:10.739Z,5.30
2022-12-16T13:49:56.402Z,3.95
2022-12-16T13:52:52.109Z,4.32
2022-12-16T13:55:45.196Z,3.08
2022-12-16T13:58:53.627Z,6.45
2022-12-16T14:01:55.513Z,5.35
2022-12-16T14:04:52.277Z,5.30
2022-12-16T14:07:41.329Z,7.28
2022-12-16T14:10:43.065Z,8.65
2022-12-16T14:13:52.684Z,4.72
2022-12-16T14:16:44.138Z,5.13
2022-12-16T14:19:47.817Z,4.28
2022-12-16T14:22:51.428Z,4.43
2022-12-16T14:25:41.780Z,5.05
2022-12-16T14:28:55.682Z,5.60
2022-12-16T14:31:53.520Z,4.28
2022-12-16T14:34:48.645Z,3.92
2022-12-16T14:37:39.696Z,4.15
2022-12-16T14:40:39.563Z,4.10
2022-12-16T14:43:32.982Z,3.45
2022-12-16T14:46:19.169Z,4.45
2022-12-16T14:49:06.741Z,4.78
2022-12-16T14:51:54.772Z,2.22
2022-12-16T14:54:44.984Z,2.70
2022-12-16T14:57:41.077Z,2.42
2022-12-16T15:00:27.043Z,3.25
2022-12-16T15:03:23.994Z,2.90
2022-12-16T15:06:10.456Z,3.97
2022-12-16T15:09:08.151Z,4.32
2022-12-16T15:11:56.017Z,6.20
2022-12-16T15:14:48.644Z,6.20
2022-12-16T15:17:42.830Z,4.80
2022-12-16T15:20:47.659Z,5.68
2022-12-16T15:23:42.380Z,5.13
2022-12-16T15:26:28.670Z,5.45
2022-12-16T15:29:13.953Z,5.70
2022-12-16T15:32:10.564Z,3.35
2022-12-16T15:35:06.394Z,3.45
2022-12-16T15:38:03.893Z,4.97
2022-12-16T15:40:52.179Z,6.80
2022-12-16T15:43:46.793Z,5.82
2022-12-16T15:46:37.354Z,10.25
2022-12-16T15:49:23.258Z,6.47
2022-12-16T15:52:10.162Z,7.75
2022-12-16T15:55:10.763Z,5.47
2022-12-16T15:57:57.614Z,9.57
2022-12-16T16:00:44.460Z,7.32
2022-12-16T16:03:46.669Z,6.50
2022-12-16T16:06:42.757Z,9.35
2022-12-16T16:09:45.964Z,5.75
2022-12-16T16:12:33.584Z,6.32
2022-12-16T16:15:19.093Z,6.88
2022-12-16T16:18:07.150Z,10.02
2022-12-16T16:20:52.663Z,5.13
2022-12-16T16:23:38.144Z,7.30
2022-12-16T16:26:23.846Z,7.63
2022-12-16T16:29:09.341Z,5.22
2022-12-16T16:31:58.198Z,5.25
2022-12-16T16:34:46.084Z,3.28
2022-12-16T16:37:34.137Z,3.42
2022-12-16T16:40:20.201Z,3.05
2022-12-16T16:43:05.487Z,4.88
2022-12-16T16:45:50.904Z,6.45
2022-12-16T16:48:37.050Z,5.53
2022-12-16T16:51:23.253Z,6.28
2022-12-16T16:54:08.873Z,8.82
2022-12-16T16:56:55.394Z,5.13
2022-12-16T16:59:42.334Z,5.00
2022-12-16T17:02:45.584Z,5.28
2022-12-16T17:05:31.921Z,5.20
2022-12-16T17:08:17.538Z,4.63
2022-12-16T17:11:13.722Z,5.55
2022-12-16T17:13:59.119Z,4.00
2022-12-16T17:16:44.688Z,4.13
2022-12-16T17:19:50.100Z,5.72
2022-12-16T17:22:35.357Z,5.05
2022-12-16T17:25:21.023Z,4.13
2022-12-16T17:28:06.822Z,4.18
2022-12-16T17:30:52.385Z,4.28
2022-12-16T17:33:38.003Z,4.88
2022-12-16T17:36:28.514Z,5.47
2022-12-16T17:39:17.154Z,5.35
2022-12-16T17:42:02.862Z,5.28
2022-12-16T17:44:48.279Z,5.80
2022-12-16T17:47:33.974Z,5.47
2022-12-16T17:50:19.630Z,6.90
2022-12-16T17:53:05.487Z,7.63
2022-12-16T17:55:52.570Z,8.65
2022-12-16T17:58:38.064Z,7.75
2022-12-16T18:01:25.447Z,5.82
2022-12-16T18:04:10.927Z,4.72
2022-12-16T18:06:56.450Z,4.60
2022-12-16T18:09:41.913Z,5.03
2022-12-16T18:12:27.549Z,5.47
2022-12-16T18:15:13.176Z,8.10
2022-12-16T18:17:58.308Z,6.35
2022-12-16T18:20:43.898Z,5.25
2022-12-16T18:23:29.346Z,6.70
2022-12-16T18:26:24.218Z,9.70
2022-12-16T18:29:09.885Z,8.20
2022-12-16T18:31:55.851Z,14.43
2022-12-16T18:34:41.163Z,14.93
2022-12-16T18:37:27.819Z,8.52
2022-12-16T18:40:13.127Z,5.40
2022-12-16T18:42:58.669Z,8.80
2022-12-16T18:45:44.107Z,7.65
2022-12-16T18:48:29.351Z,7.40
2022-12-16T18:51:16.934Z,6.43
2022-12-16T18:54:03.342Z,8.13
2022-12-16T18:56:48.780Z,4.90
2022-12-16T18:59:34.326Z,3.63
2022-12-16T19:02:20.131Z,6.28
2022-12-16T19:05:05.586Z,8.30
2022-12-16T19:07:51.321Z,4.68
2022-12-16T19:10:36.930Z,6.85
2022-12-16T19:13:22.522Z,9.07
2022-12-16T19:16:15.832Z,7.88
2022-12-16T19:19:04.829Z,9.02
2022-12-16T19:21:52.156Z,9.15
2022-12-16T19:24:42.291Z,6.80
2022-12-16T19:27:27.951Z,8.13
2022-12-16T19:30:13.391Z,8.48
2022-12-16T19:32:59.617Z,7.82
2022-12-16T19:35:45.239Z,9.38
2022-12-16T19:38:32.036Z,10.23
2022-12-16T19:41:17.540Z,8.10
2022-12-16T19:44:06.127Z,6.30
2022-12-16T19:46:53.425Z,8.27
2022-12-16T19:49:44.514Z,11.65
2022-12-16T19:52:30.378Z,11.70
2022-12-16T19:58:21.867Z,9.60
2022-12-16T20:01:07.459Z,9.00
2022-12-16T20:03:55.132Z,7.75
2022-12-16T20:06:42.440Z,5.03
2022-12-16T20:09:27.979Z,6.25
2022-12-16T20:12:13.368Z,8.57
2022-12-16T20:14:58.722Z,5.72
2022-12-16T20:17:43.989Z,8.88
2022-12-16T20:20:30.093Z,6.97
2022-12-16T20:23:15.371Z,5.05
2022-12-16T20:26:00.715Z,6.90
2022-12-16T20:28:45.924Z,4.72
2022-12-16T20:31:31.457Z,4.63
2022-12-16T20:34:17.156Z,6.22
2022-12-16T20:37:02.504Z,5.13
2022-12-16T20:39:56.516Z,5.28
2022-12-16T20:42:44.238Z,6.05
2022-12-16T20:45:30.327Z,7.68
2022-12-16T20:48:15.923Z,5.55
2022-12-16T20:51:02.015Z,7.45
2022-12-16T20:53:48.088Z,8.35
2022-12-16T20:56:33.773Z,9.13
2022-12-16T20:59:19.337Z,7.47
2022-12-16T21:05:11.450Z,5.43
2022-12-16T21:07:57.125Z,5.05
2022-12-16T21:10:42.535Z,4.13
2022-12-16T21:13:31.173Z,3.40
2022-12-16T21:16:18.395Z,5.63
2022-12-16T21:19:04.066Z,6.30
2022-12-16T21:21:49.335Z,7.53
2022-12-16T21:24:34.845Z,8.35
2022-12-16T21:27:20.340Z,9.15
2022-12-16T21:30:06.017Z,8.38
2022-12-16T21:32:51.662Z,5.30
2022-12-16T21:35:39.277Z,6.13
2022-12-16T21:38:28.469Z,4.60
2022-12-16T21:41:14.652Z,4.25
2022-12-16T21:44:00.106Z,4.00
2022-12-16T21:46:45.783Z,5.88
2022-12-16T21:49:31.388Z,7.88
2022-12-16T21:52:17.007Z,6.65
2022-12-16T21:55:02.611Z,6.72
2022-12-16T21:57:47.908Z,10.75
2022-12-16T22:00:34.291Z,6.22
2022-12-16T22:03:19.799Z,9.18
2022-12-16T22:06:05.308Z,10.35
2022-12-16T22:08:51.739Z,9.20
2022-12-16T22:11:37.174Z,9.75
2022-12-16T22:14:22.631Z,9.38
2022-12-16T22:17:09.628Z,11.05
2022-12-16T22:19:56.228Z,7.65
2022-12-16T22:22:42.210Z,5.38
2022-12-16T22:25:27.852Z,8.10
2022-12-16T22:28:13.359Z,4.32
2022-12-16T22:30:58.774Z,5.55
2022-12-16T22:33:43.976Z,5.68
2022-12-16T22:36:31.937Z,8.07
2022-12-16T22:39:17.596Z,5.30
2022-12-16T22:42:02.909Z,5.32
2022-12-16T22:44:48.586Z,7.75
2022-12-16T22:47:33.873Z,6.60
2022-12-16T22:50:19.366Z,4.57
2022-12-16T22:53:04.870Z,5.75
2022-12-16T22:55:50.452Z,8.63
2022-12-16T22:58:36.040Z,9.90
2022-12-16T23:01:24.714Z,10.02
2022-12-16T23:04:10.542Z,10.02
2022-12-16T23:06:56.203Z,9.48
2022-12-16T23:09:41.484Z,11.18
2022-12-16T23:12:27.498Z,6.97
2022-12-16T23:15:14.760Z,6.38
2022-12-16T23:18:00.472Z,6.82
2022-12-16T23:20:45.838Z,8.57
2022-12-16T23:23:31.675Z,5.53
2022-12-16T23:26:19.073Z,8.50
2022-12-16T23:29:08.214Z,6.70
2022-12-16T23:31:56.422Z,7.32
2022-12-16T23:34:45.754Z,8.85
2022-12-16T23:37:33.288Z,6.75
2022-12-16T23:40:18.765Z,6.70
2022-12-16T23:43:06.030Z,5.97
2022-12-16T23:45:51.582Z,6.30
2022-12-16T23:48:37.509Z,8.57
2022-12-16T23:51:23.087Z,6.57
2022-12-16T23:54:08.717Z,5.93
2022-12-16T23:56:54.993Z,4.47
2022-12-16T23:59:41.936Z,4.25
